Dobrodošli na spletni strani vremenske postaje Senovo. Vse informacije so informativnega značaja, saj vremenska postaja ni del državne mreže meteoroloških postaj. AKTUALNIH OBVESTIL NI.


Posebna pozornost v zvezi z vremenskimi dogajanji ni potrebna.    Posebna pozornost v zvezi z vremenskimi dogajanji ni potrebna.

Pogled proti Armezu več informacij Pogled proti Armezu


Lisca več informacij Lisca


Radar strel več informacij blitzortung!


Radar padavin več informacij rain snow radar


Obiščite še:

Template documentation
and downloads

And another site



Weather Underground, zgodovina - Tekstovno

Dnevni povzetek za Januar 3, 2018 Enote:  Angleško    Metrično   Obe
« Predhodni Dan
Naslednji Dan »
Dnevni Tedenski Mesečni Letni Po meri
  Višja: Nižja: Povprečje:
Temperatura: TemperatureC °F -0.3 °F 3 °F
Točka rosišča: DewpointC °F -1.7 °F 1.1 °F
Vlažnost: Humidity % 57 % 88 %
Hitrost vetra: WindSpeedKMH mph 0.0 mph 2.4 mph
Sunki vetra: WindSpeedGustKMH mph - -
Veter:- - SW
Zračni tlak: PressurehPa in 998.9 in -
Padavine: 2.3 in    
Historical Graphs
 
 
Tabelarni podarki za Januar 3, 2018
Čas Temperatura Točka rosišča Zračni tlak Veter Hitrost vetra Sunki vetra Vlažnost Intenziteta padavin (urna)
TemperatureC °F DewpointC °F PressurehPa in Calm     Humidity % HourlyPrecipMM in
00:01 1.2 °F 0.6 °F 1015.1 in Calm     96 % 0.0 in
00:02 1.2 °F 0.6 °F 1015.1 in Calm     96 % 0.0 in
00:07 1.2 °F 0.6 °F 1015.1 in Calm     96 % 0.0 in
00:15 1.2 °F 0.6 °F 1015.1 in Calm   4.0 mph 96 % 0.0 in
00:18 1.2 °F 0.6 °F 1015.1 in NW 0.6 mph 4.3 mph 96 % 0.0 in
00:23 1.2 °F 0.6 °F 1015.1 in NNW 1.4 mph 5.0 mph 96 % 0.0 in
00:33 1.1 °F 0.6 °F 1014.1 in NNW 2.3 mph 5.5 mph 96 % 0.0 in
00:35 1.1 °F 0.6 °F 1014.1 in NNW 1.6 mph 5.5 mph 96 % 0.0 in
00:40 1.1 °F 0.6 °F 1014.1 in NNW 0.2 mph 2.6 mph 96 % 0.0 in
00:42 1.1 °F 0.6 °F 1014.1 in NNW 0.2 mph 2.6 mph 96 % 0.0 in
00:47 1.1 °F 0.6 °F 1014.1 in Calm   1.8 mph 96 % 0.0 in
00:49 1.1 °F 0.6 °F 1014.1 in Calm   1.8 mph 96 % 0.0 in
00:50 1.2 °F 0.6 °F 1014.1 in Calm   1.8 mph 96 % 0.0 in
00:55 1.2 °F 0.6 °F 1014.1 in Calm     96 % 0.0 in
00:56 1.2 °F 0.6 °F 1014.1 in Calm     96 % 0.0 in
01:01 1.2 °F 0.6 °F 1015.1 in North 0.8 mph 4.7 mph 96 % 0.0 in
01:02 1.2 °F 0.6 °F 1015.1 in North 1.0 mph 4.7 mph 96 % 0.0 in
01:07 1.2 °F 0.6 °F 1015.1 in NNW 1.8 mph 4.7 mph 96 % 0.0 in
01:08 1.2 °F 0.6 °F 1015.1 in NNW 1.4 mph 4.3 mph 96 % 0.0 in
01:14 1.2 °F 0.6 °F 1015.1 in WNW 0.5 mph 4.3 mph 96 % 0.0 in
01:18 1.2 °F 0.6 °F 1015.1 in Calm   2.6 mph 96 % 0.0 in
01:23 1.2 °F 0.6 °F 1015.1 in WSW 0.2 mph 2.6 mph 96 % 0.0 in
01:25 1.2 °F 0.6 °F 1015.1 in WSW 0.2 mph 2.6 mph 96 % 0.0 in
01:27 1.2 °F 0.6 °F 1015.1 in WSW 0.2 mph 2.6 mph 96 % 0.0 in
01:32 1.2 °F 0.6 °F 1015.1 in Calm   2.1 mph 96 % 0.0 in
01:37 1.3 °F 0.7 °F 1015.1 in North 0.2 mph 2.1 mph 96 % 0.0 in
01:42 1.3 °F 0.7 °F 1015.1 in NNE 0.5 mph 4.0 mph 96 % 0.0 in
01:47 1.3 °F 0.7 °F 1016.1 in NNE 0.5 mph 4.0 mph 96 % 0.0 in
01:52 1.3 °F 0.7 °F 1016.1 in North 0.3 mph 4.0 mph 96 % 0.0 in
01:54 1.3 °F 0.7 °F 1016.1 in NNW 0.2 mph 4.0 mph 96 % 0.0 in
01:59 1.3 °F 0.7 °F 1016.1 in North 0.8 mph 4.0 mph 96 % 0.0 in
02:04 1.3 °F 0.7 °F 1016.1 in NNE 1.1 mph 5.5 mph 96 % 0.0 in
02:05 1.3 °F 0.7 °F 1016.1 in North 1.6 mph 5.5 mph 96 % 0.0 in
02:10 1.3 °F 0.7 °F 1016.1 in North 2.1 mph 5.8 mph 96 % 0.0 in
02:14 1.2 °F 0.6 °F 1015.1 in North 2.1 mph 5.8 mph 96 % 0.0 in
02:19 1.2 °F 0.6 °F 1015.1 in NNW 0.6 mph 5.0 mph 96 % 0.0 in
02:21 1.2 °F 0.6 °F 1015.1 in NW 0.2 mph 2.6 mph 96 % 0.0 in
02:29 1.1 °F 0.6 °F 1015.1 in Calm   3.2 mph 96 % 0.0 in
02:34 1.1 °F 0.6 °F 1015.1 in NNE 0.5 mph 5.5 mph 96 % 0.0 in
02:35 1.1 °F 0.6 °F 1015.1 in NNE 0.5 mph 5.5 mph 96 % 0.0 in
02:40 1.1 °F 0.6 °F 1015.1 in NNE 0.6 mph 5.5 mph 96 % 0.0 in
02:45 1.1 °F 0.6 °F 1015.1 in North 1.3 mph 5.5 mph 96 % 0.0 in
02:48 1.1 °F 0.6 °F 1015.1 in North 1.6 mph 5.5 mph 96 % 0.0 in
02:51 1.1 °F 0.6 °F 1015.1 in North 1.9 mph 5.5 mph 96 % 0.0 in
02:54 1.1 °F 0.6 °F 1015.1 in NNW 2.3 mph 5.5 mph 96 % 0.0 in
02:57 1.1 °F 0.6 °F 1015.1 in NNW 2.3 mph 5.5 mph 96 % 0.0 in
03:02 1.0 °F 0.4 °F 1015.1 in NNW 2.6 mph 5.5 mph 96 % 0.0 in
03:03 1.0 °F 0.4 °F 1015.1 in NNW 2.4 mph 4.7 mph 96 % 0.0 in
03:08 0.9 °F 0.5 °F 1015.1 in NNE 1.6 mph 4.0 mph 97 % 0.0 in
03:09 0.9 °F 0.5 °F 1015.1 in NNE 1.4 mph 4.3 mph 97 % 0.0 in
03:14 0.9 °F 0.5 °F 1014.1 in NNE 1.4 mph 4.3 mph 97 % 0.0 in
03:15 0.9 °F 0.5 °F 1014.1 in NNE 1.4 mph 4.3 mph 97 % 0.0 in
03:20 0.9 °F 0.5 °F 1014.1 in NE 1.1 mph 3.5 mph 97 % 0.0 in
03:21 0.9 °F 0.5 °F 1014.1 in NE 1.3 mph 3.5 mph 97 % 0.0 in
03:26 0.9 °F 0.5 °F 1014.1 in NE 0.5 mph 2.6 mph 97 % 0.0 in
03:27 0.9 °F 0.5 °F 1014.1 in NE 0.5 mph 2.6 mph 97 % 0.0 in
03:31 0.9 °F 0.5 °F 1014.1 in NNE 0.8 mph 4.0 mph 97 % 0.0 in
03:33 0.8 °F 0.4 °F 1014.1 in NNE 0.6 mph 4.0 mph 97 % 0.0 in
03:37 0.8 °F 0.4 °F 1014.1 in NNE 0.6 mph 4.0 mph 97 % 0.0 in
03:42 0.8 °F 0.4 °F 1014.1 in Calm     97 % 0.0 in
03:43 0.8 °F 0.4 °F 1014.1 in Calm     97 % 0.0 in
03:46 0.8 °F 0.4 °F 1014.1 in West 0.5 mph 5.0 mph 97 % 0.0 in
03:51 0.8 °F 0.4 °F 1014.1 in WNW 0.6 mph 5.0 mph 97 % 0.0 in
03:54 0.8 °F 0.4 °F 1014.1 in WNW 1.0 mph 5.0 mph 97 % 0.0 in
03:59 0.8 °F 0.4 °F 1013.1 in NNW 1.8 mph 5.0 mph 97 % 0.0 in
04:00 0.8 °F 0.4 °F 1013.1 in NNW 1.9 mph 5.0 mph 97 % 0.0 in
04:05 0.8 °F 0.4 °F 1013.1 in NNW 1.9 mph 5.0 mph 97 % 0.0 in
04:11 0.7 °F 0.3 °F 1013.1 in NNW 1.4 mph 4.3 mph 97 % 0.0 in
04:17 0.7 °F 0.3 °F 1013.1 in NW 0.3 mph 1.8 mph 97 % 0.0 in
04:22 0.7 °F 0.3 °F 1013.1 in Calm   1.8 mph 97 % 0.0 in
04:30 0.7 °F 0.3 °F 1012.1 in NNW 0.8 mph 3.2 mph 97 % 0.0 in
04:32 0.7 °F 0.3 °F 1012.1 in NNW 1.0 mph 3.2 mph 97 % 0.0 in
04:37 0.7 °F 0.3 °F 1012.1 in ENE 0.5 mph 3.5 mph 97 % 0.0 in
04:42 0.7 °F 0.3 °F 1013.1 in NE 1.1 mph 4.0 mph 97 % 0.0 in
04:44 0.7 °F 0.3 °F 1013.1 in NE 1.3 mph 4.0 mph 97 % 0.0 in
04:50 0.6 °F 0.2 °F 1013.1 in North 0.3 mph 4.3 mph 97 % 0.0 in
04:53 0.7 °F 0.3 °F 1013.1 in North 0.5 mph 4.3 mph 97 % 0.0 in
04:55 0.6 °F 0.2 °F 1013.1 in NNW 0.5 mph 4.3 mph 97 % 0.0 in
05:00 0.6 °F 0.2 °F 1013.1 in North 0.3 mph 2.1 mph 97 % 0.0 in
05:02 0.6 °F 0.2 °F 1013.1 in Calm     97 % 0.0 in
05:07 0.6 °F 0.2 °F 1013.1 in NNW 0.2 mph 3.5 mph 97 % 0.0 in
05:08 0.6 °F 0.2 °F 1013.1 in NNW 0.2 mph 3.5 mph 97 % 0.0 in
05:13 0.6 °F 0.2 °F 1013.1 in NW 0.8 mph 6.4 mph 97 % 0.0 in
05:15 0.6 °F 0.2 °F 1013.1 in NW 0.8 mph 6.4 mph 97 % 0.0 in
05:20 0.6 °F 0.2 °F 1013.1 in WNW 0.3 mph 3.5 mph 97 % 0.0 in
05:25 0.6 °F 0.2 °F 1013.1 in NW 0.3 mph 4.0 mph 97 % 0.0 in
05:30 0.6 °F 0.2 °F 1013.1 in West 0.8 mph 4.0 mph 97 % 0.0 in
05:34 0.6 °F 0.2 °F 1013.1 in West 1.0 mph 4.0 mph 97 % 0.0 in
05:40 0.6 °F 0.2 °F 1013.1 in West 1.6 mph 4.7 mph 97 % 0.0 in
05:45 0.6 °F 0.2 °F 1013.1 in West 2.6 mph 6.4 mph 97 % 0.0 in
05:49 0.5 °F 0.1 °F 1013.1 in WNW 1.4 mph 6.4 mph 97 % 0.0 in
05:50 0.5 °F 0.1 °F 1013.1 in WNW 1.4 mph 6.4 mph 97 % 0.0 in
05:55 0.5 °F 0.1 °F 1013.1 in NNW 0.2 mph 2.1 mph 97 % 0.0 in
06:00 0.5 °F 0.1 °F 1012.1 in Calm   1.8 mph 97 % 0.0 in
06:01 0.5 °F 0.1 °F 1012.1 in Calm   1.8 mph 97 % 0.0 in
06:06 0.5 °F 0.1 °F 1012.1 in SW 0.2 mph 2.6 mph 97 % 0.0 in
06:11 0.5 °F 0.1 °F 1012.1 in SSW 0.5 mph 2.6 mph 97 % 0.0 in
06:15 0.5 °F 0.1 °F 1012.1 in SSW 0.5 mph 2.6 mph 97 % 0.0 in
06:20 0.5 °F 0.1 °F 1012.1 in NE 0.5 mph 3.2 mph 97 % 0.0 in
06:25 0.5 °F 0.1 °F 1012.1 in NE 0.6 mph 3.2 mph 97 % 0.0 in
06:30 0.5 °F 0.1 °F 1012.1 in North 0.2 mph   97 % 0.0 in
06:33 0.6 °F 0.2 °F 1012.1 in Calm     97 % 0.0 in
06:38 0.6 °F 0.2 °F 1012.1 in Calm     97 % 0.0 in
06:42 0.6 °F 0.2 °F 1012.1 in Calm     97 % 0.0 in
06:47 0.6 °F 0.2 °F 1012.1 in Calm     97 % 0.0 in
06:52 0.6 °F 0.2 °F 1012.1 in Calm   1.8 mph 97 % 0.0 in
06:53 0.6 °F 0.2 °F 1012.1 in Calm   1.8 mph 97 % 0.0 in
07:01 0.6 °F 0.2 °F 1011.1 in NE 0.6 mph 3.5 mph 97 % 0.0 in
07:03 0.6 °F 0.2 °F 1011.1 in NE 0.6 mph 3.5 mph 97 % 0.0 in
07:07 0.6 °F 0.2 °F 1011.1 in West 1.9 mph 6.4 mph 97 % 0.0 in
07:12 0.6 °F 0.2 °F 1011.1 in West 3.1 mph 6.4 mph 97 % 0.0 in
07:13 0.6 °F 0.2 °F 1011.1 in West 3.1 mph 6.4 mph 97 % 0.0 in
07:18 0.6 °F 0.2 °F 1011.1 in WSW 1.6 mph 5.5 mph 97 % 0.0 in
07:21 0.6 °F 0.2 °F 1011.1 in SSW 0.5 mph 2.6 mph 97 % 0.0 in
07:23 0.6 °F 0.2 °F 1011.1 in SSE 0.2 mph 2.6 mph 97 % 0.0 in
07:29 0.7 °F 0.3 °F 1011.1 in Calm   2.1 mph 97 % 0.0 in
07:35 0.7 °F 0.3 °F 1011.1 in Calm   1.8 mph 97 % 0.0 in
07:40 0.7 °F 0.3 °F 1011.1 in Calm   1.8 mph 97 % 0.0 in
07:46 0.7 °F 0.3 °F 1011.1 in Calm   1.4 mph 97 % 0.0 in
07:51 0.7 °F 0.3 °F 1011.1 in Calm   4.7 mph 97 % 0.0 in
07:53 0.7 °F 0.3 °F 1011.1 in West 0.5 mph 4.7 mph 97 % 0.0 in
07:55 0.7 °F 0.3 °F 1011.1 in West 0.5 mph 4.7 mph 97 % 0.0 in
08:00 0.7 °F 0.3 °F 1011.1 in NW 1.3 mph 4.7 mph 97 % 0.0 in
08:02 0.7 °F 0.3 °F 1011.1 in NNW 1.0 mph 5.0 mph 97 % 0.0 in
08:07 0.7 °F 0.3 °F 1011.1 in NNW 1.6 mph 5.0 mph 97 % 0.0 in
08:13 0.7 °F 0.3 °F 1011.1 in NNW 0.8 mph 5.8 mph 97 % 0.0 in
08:22 0.6 °F 0.2 °F 1011.1 in NNW 1.9 mph 5.8 mph 97 % 0.0 in
08:28 0.7 °F 0.3 °F 1011.1 in Calm     97 % 0.0 in
08:31 0.7 °F 0.3 °F 1011.1 in SW 0.6 mph 4.7 mph 97 % 0.0 in
08:36 0.7 °F 0.3 °F 1011.1 in SW 2.1 mph 5.0 mph 97 % 0.0 in
08:41 0.7 °F 0.3 °F 1011.1 in SSW 2.9 mph 6.4 mph 97 % 0.0 in
08:43 0.7 °F 0.3 °F 1009.0 in SSW 2.6 mph 6.4 mph 97 % 0.0 in
08:47 0.7 °F 0.3 °F 1009.0 in SSW 3.2 mph 6.4 mph 97 % 0.0 in
08:52 0.7 °F 0.3 °F 1009.0 in SW 4.0 mph 7.9 mph 97 % 0.0 in
08:57 0.7 °F 0.3 °F 1009.0 in WSW 4.0 mph 7.9 mph 97 % 0.0 in
08:58 0.7 °F 0.3 °F 1008.0 in WSW 3.7 mph 7.9 mph 97 % 0.0 in
09:03 0.7 °F 0.3 °F 1008.0 in WSW 2.4 mph 6.4 mph 97 % 0.0 in
09:08 0.7 °F 0.3 °F 1008.0 in WSW 2.9 mph 5.5 mph 97 % 0.0 in
09:09 0.7 °F 0.3 °F 1008.0 in WSW 3.1 mph 5.5 mph 97 % 0.0 in
09:14 0.8 °F 0.4 °F 1009.0 in West 2.1 mph 5.5 mph 97 % 0.0 in
09:17 0.8 °F 0.4 °F 1009.0 in WSW 1.6 mph 6.1 mph 97 % 0.0 in
09:20 0.9 °F 0.5 °F 1009.0 in WSW 2.4 mph 6.1 mph 97 % 0.0 in
09:25 0.9 °F 0.5 °F 1009.0 in West 3.7 mph 6.1 mph 97 % 0.0 in
09:27 0.9 °F 0.5 °F 1008.0 in WNW 3.5 mph 6.1 mph 97 % 0.0 in
09:46 1.0 °F 0.6 °F 1008.0 in NNW 0.2 mph 4.3 mph 97 % 0.0 in
09:48 1.0 °F 0.6 °F 1008.0 in NW 0.5 mph 4.7 mph 97 % 0.0 in
09:53 1.0 °F 0.6 °F 1008.0 in NW 1.3 mph 6.1 mph 97 % 0.0 in
09:56 1.1 °F 0.7 °F 1008.0 in WNW 2.3 mph 6.1 mph 97 % 0.0 in
10:01 1.1 °F 0.7 °F 1008.0 in West 1.9 mph 5.5 mph 97 % 0.0 in
10:08 1.3 °F 0.9 °F 1008.0 in SW 0.8 mph 4.7 mph 97 % 0.0 in
10:09 1.3 °F 0.9 °F 1008.0 in SW 1.0 mph 4.7 mph 97 % 0.0 in
10:14 1.4 °F 1.0 °F 1006.0 in NW 1.3 mph 5.0 mph 97 % 0.0 in
10:15 1.4 °F 1.0 °F 1006.0 in NW 1.4 mph 5.8 mph 97 % 0.0 in
10:20 1.4 °F 1.0 °F 1006.0 in WNW 3.9 mph 9.3 mph 97 % 0.0 in
10:21 1.4 °F 1.0 °F 1006.0 in WNW 4.0 mph 9.3 mph 97 % 0.0 in
10:26 1.6 °F 1.2 °F 1006.0 in SW 5.0 mph 9.3 mph 97 % 0.0 in
10:29 1.7 °F 1.3 °F 1007.0 in SSW 5.0 mph 7.9 mph 97 % 0.0 in
10:35 1.9 °F 1.5 °F 1007.0 in SSW 5.0 mph 7.9 mph 97 % 0.0 in
10:40 2.0 °F 1.6 °F 1007.0 in SSW 3.9 mph 6.1 mph 97 % 0.0 in
10:42 2.1 °F 1.7 °F 1006.0 in SSW 3.7 mph 6.1 mph 97 % 0.0 in
10:47 2.2 °F 1.8 °F 1006.0 in SW 4.7 mph 7.9 mph 97 % 0.0 in
10:53 2.3 °F 1.9 °F 1006.0 in SW 5.3 mph 7.9 mph 97 % 0.0 in
10:58 2.3 °F 1.9 °F 1006.0 in SW 5.6 mph 10.1 mph 97 % 0.0 in
11:03 2.4 °F 2.0 °F 1006.0 in SW 5.0 mph 10.1 mph 97 % 0.0 in
11:06 2.4 °F 2.0 °F 1006.0 in SSW 3.9 mph 6.1 mph 97 % 0.0 in
11:09 2.5 °F 2.1 °F 1006.0 in SSW 3.1 mph 5.8 mph 97 % 0.0 in
11:14 2.6 °F 2.2 °F 1003.9 in South 1.0 mph 5.0 mph 97 % 0.0 in
11:20 2.8 °F 2.4 °F 1003.9 in SSE 1.0 mph 6.1 mph 97 % 0.0 in
11:23 3.0 °F 2.6 °F 1003.9 in SSE 2.3 mph 6.4 mph 97 % 0.0 in
11:25 3.1 °F 2.7 °F 1003.9 in SSE 3.5 mph 6.4 mph 97 % 0.0 in
11:30 3.2 °F 2.8 °F 1003.9 in South 4.8 mph 7.9 mph 97 % 0.0 in
11:31 3.3 °F 2.9 °F 1003.9 in South 4.8 mph 7.9 mph 97 % 0.0 in
11:37 3.6 °F 3.2 °F 1003.9 in SSW 5.6 mph 7.9 mph 97 % 0.0 in
11:42 4.1 °F 3.7 °F 1003.9 in SSW 6.1 mph 10.1 mph 97 % 0.0 in
11:47 4.4 °F 3.9 °F 1003.9 in SSW 6.0 mph 10.1 mph 97 % 0.0 in
11:48 4.4 °F 3.9 °F 1003.9 in SSW 6.0 mph 10.1 mph 97 % 0.0 in
11:53 4.8 °F 4.4 °F 1003.9 in SSW 5.5 mph 10.5 mph 97 % 0.0 in
11:58 5.1 °F 4.7 °F 1002.9 in South 4.7 mph 10.5 mph 97 % 0.0 in
12:00 5.2 °F 4.8 °F 1002.9 in South 4.3 mph 10.5 mph 97 % 0.0 in
12:05 5.5 °F 5.1 °F 1002.9 in SSE 3.5 mph 7.6 mph 97 % 0.0 in
12:06 5.6 °F 5.2 °F 1002.9 in SSE 3.9 mph 7.6 mph 97 % 0.0 in
12:10 5.8 °F 5.3 °F 1002.9 in SSE 3.7 mph 6.9 mph 97 % 0.0 in
12:15 6.0 °F 5.6 °F 1002.9 in South 4.3 mph 7.9 mph 97 % 0.0 in
12:17 6.1 °F 5.7 °F 1002.9 in South 4.5 mph 7.9 mph 97 % 0.0 in
12:18 6.1 °F 5.7 °F 1002.9 in SSW 4.5 mph 7.9 mph 97 % 0.0 in
12:22 6.1 °F 5.7 °F 1002.9 in SSW 6.4 mph 14.0 mph 97 % 0.0 in
12:27 6.0 °F 5.6 °F 999.9 in SSW 6.8 mph 14.0 mph 97 % 0.0 in
12:31 6.1 °F 5.5 °F 999.9 in SSW 6.3 mph 12.6 mph 96 % 0.0 in
12:33 6.2 °F 5.6 °F 999.9 in SSW 5.3 mph 7.9 mph 96 % 0.0 in
12:37 6.4 °F 5.8 °F 999.9 in South 4.0 mph 9.7 mph 96 % 0.0 in
12:41 6.7 °F 6.1 °F 999.9 in SSW 4.7 mph 10.5 mph 96 % 0.0 in
12:44 6.8 °F 6.2 °F 1000.9 in SSW 5.3 mph 10.5 mph 96 % 0.0 in
12:49 7.1 °F 6.5 °F 1000.9 in South 6.9 mph 11.1 mph 96 % 0.0 in
12:50 7.1 °F 6.5 °F 1000.9 in South 7.1 mph 11.1 mph 96 % 0.0 in
12:54 7.5 °F 6.9 °F 1000.9 in South 6.4 mph 11.1 mph 96 % 0.0 in
12:55 7.5 °F 6.9 °F 1000.9 in South 6.4 mph 11.1 mph 96 % 0.0 in
13:00 7.5 °F 6.8 °F 999.9 in SSW 5.3 mph 10.1 mph 95 % 0.0 in
13:05 7.7 °F 6.8 °F 999.9 in West 4.7 mph 9.7 mph 94 % 0.0 in
13:07 7.7 °F 6.8 °F 999.9 in West 5.5 mph 16.3 mph 94 % 0.0 in
13:11 7.7 °F 6.7 °F 999.9 in West 6.3 mph 16.3 mph 93 % 0.0 in
13:12 7.7 °F 6.5 °F 999.9 in West 6.9 mph 16.3 mph 92 % 0.0 in
13:17 7.7 °F 6.3 °F 999.9 in WSW 7.2 mph 14.0 mph 91 % 0.0 in
13:18 7.7 °F 6.2 °F 999.9 in WSW 7.2 mph 14.0 mph 90 % 0.0 in
13:23 7.5 °F 5.7 °F 999.9 in West 7.6 mph 16.3 mph 88 % 0.0 in
13:24 7.5 °F 5.7 °F 999.9 in West 7.9 mph 16.3 mph 88 % 0.0 in
13:31 7.5 °F 5.3 °F 998.9 in West 6.6 mph 16.3 mph 86 % 0.0 in
13:36 7.6 °F 5.1 °F 998.9 in West 4.2 mph 11.6 mph 84 % 0.0 in
13:41 7.7 °F 4.8 °F 998.9 in SSW 3.2 mph 10.5 mph 82 % 0.0 in
13:44 7.8 °F 4.7 °F 998.9 in SW 5.5 mph 14.8 mph 81 % 0.0 in
13:48 7.8 °F 4.6 °F 998.9 in SW 7.2 mph 14.8 mph 80 % 0.0 in
13:53 7.9 °F 4.3 °F 998.9 in SSW 9.0 mph 14.8 mph 78 % 0.0 in
13:54 7.9 °F 4.1 °F 998.9 in SSW 9.0 mph 13.7 mph 77 % 0.0 in
13:59 8.0 °F 4.0 °F 998.9 in SW 7.6 mph 13.7 mph 76 % 0.0 in
14:04 8.0 °F 3.8 °F 998.9 in WSW 5.5 mph 9.3 mph 75 % 0.0 in
14:07 8.0 °F 3.7 °F 998.9 in WSW 4.5 mph 8.7 mph 74 % 0.0 in
14:11 8.0 °F 3.4 °F 998.9 in SW 4.5 mph 8.7 mph 73 % 0.0 in
14:16 8.0 °F 3.3 °F 998.9 in WSW 5.5 mph 13.0 mph 72 % 0.0 in
14:20 8.1 °F 3.2 °F 998.9 in WSW 6.1 mph 13.0 mph 71 % 0.0 in
14:26 8.1 °F 2.8 °F 998.9 in WSW 5.6 mph 11.9 mph 69 % 0.0 in
14:31 8.0 °F 2.4 °F 998.9 in WSW 5.0 mph 11.6 mph 68 % 0.0 in
14:36 8.0 °F 2.2 °F 998.9 in WSW 5.3 mph 12.2 mph 67 % 0.0 in
14:38 8.1 °F 2.3 °F 998.9 in West 6.0 mph 12.2 mph 67 % 0.0 in
14:39 8.1 °F 2.1 °F 998.9 in WSW 6.1 mph 12.2 mph 66 % 0.0 in
14:44 8.1 °F 1.9 °F 999.9 in WSW 5.6 mph 10.5 mph 65 % 0.0 in
14:48 8.0 °F 1.8 °F 999.9 in WSW 4.2 mph 9.7 mph 65 % 0.0 in
14:49 8.0 °F 1.6 °F 999.9 in West 3.5 mph 7.9 mph 64 % 0.0 in
14:54 8.0 °F 1.6 °F 999.9 in NNW 3.4 mph 7.9 mph 64 % 0.0 in
14:56 7.9 °F 1.5 °F 999.9 in NNW 3.5 mph 9.3 mph 64 % 0.0 in
15:03 8.0 °F 1.4 °F 1000.9 in WNW 5.3 mph 13.0 mph 63 % 0.0 in
15:08 8.0 °F 1.2 °F 1000.9 in WNW 5.0 mph 13.0 mph 62 % 0.0 in
15:13 8.1 °F 1.0 °F 1000.9 in West 4.7 mph 15.8 mph 61 % 0.0 in
15:18 8.1 °F 0.8 °F 1000.9 in West 4.8 mph 15.8 mph 60 % 0.0 in
15:22 8.1 °F 0.8 °F 1000.9 in West 4.5 mph 9.0 mph 60 % 0.0 in
15:23 8.1 °F 0.8 °F 1000.9 in West 4.5 mph 9.0 mph 60 % 0.0 in
15:28 8.2 °F 0.9 °F 1000.9 in West 5.0 mph 10.5 mph 60 % 0.0 in
15:33 8.2 °F 0.7 °F 1000.9 in WNW 4.7 mph 17.7 mph 59 % 0.0 in
15:35 8.3 °F 0.7 °F 1000.9 in West 5.8 mph 21.9 mph 59 % 0.0 in
15:38 8.3 °F 0.5 °F 1000.9 in West 6.9 mph 21.9 mph 58 % 0.0 in
15:41 8.3 °F 0.5 °F 1000.9 in West 7.2 mph 21.9 mph 58 % 0.0 in
15:46 8.3 °F 0.3 °F 1000.9 in West 6.6 mph 12.2 mph 57 % 0.0 in
15:47 8.3 °F 0.3 °F 1000.9 in WSW 6.1 mph 11.6 mph 57 % 0.0 in
15:51 8.2 °F 0.2 °F 1000.9 in WSW 5.8 mph 11.9 mph 57 % 0.0 in
15:58 8.2 °F 0.2 °F 1001.9 in WSW 4.7 mph 11.9 mph 57 % 0.0 in
16:03 8.2 °F 0.2 °F 1001.9 in WNW 4.8 mph 36.4 mph 57 % 0.0 in
16:05 8.1 °F 0.1 °F 1001.9 in WNW 6.1 mph 36.4 mph 57 % 0.0 in
16:06 8.1 °F 0.1 °F 1001.9 in NW 6.3 mph 36.4 mph 57 % 0.0 in
16:11 7.8 °F -0.2 °F 1001.9 in NW 7.4 mph 36.4 mph 57 % 0.3 in
16:15 7.5 °F -0.2 °F 1001.9 in NW 7.2 mph 17.2 mph 58 % 0.3 in
16:20 7.3 °F -0.4 °F 1001.9 in WNW 7.7 mph 21.9 mph 58 % 0.5 in
16:21 7.3 °F -0.4 °F 1001.9 in West 7.6 mph 21.9 mph 58 % 0.5 in
16:24 7.2 °F -0.3 °F 1001.9 in West 7.1 mph 21.9 mph 59 % 0.5 in
16:28 7.0 °F -0.2 °F 1001.9 in WSW 6.1 mph 13.7 mph 60 % 0.5 in
16:33 6.8 °F -0.2 °F 1001.9 in WSW 6.4 mph 13.7 mph 61 % 0.5 in
16:34 6.8 °F -0.2 °F 1001.9 in WSW 6.8 mph 16.3 mph 61 % 0.5 in
16:39 6.7 °F -0.1 °F 1001.9 in WSW 6.9 mph 16.3 mph 62 % 0.8 in
16:40 6.7 °F -0.1 °F 1001.9 in WSW 6.6 mph 16.3 mph 62 % 0.8 in
16:42 6.6 °F -0.2 °F 1001.9 in SW 6.6 mph 16.3 mph 62 % 1.0 in
16:45 6.5 °F -0.1 °F 1001.9 in SW 5.1 mph 7.2 mph 63 % 1.0 in
16:50 6.4 °F 0.1 °F 1001.9 in SW 3.9 mph 5.8 mph 64 % 1.0 in
16:52 6.3 °F 0.0 °F 1001.9 in WSW 3.4 mph 5.8 mph 64 % 1.0 in
16:57 6.1 °F 0.0 °F 1001.9 in SW 2.9 mph 5.5 mph 65 % 1.3 in
16:58 6.1 °F 0.2 °F 1002.9 in SW 3.1 mph 5.5 mph 66 % 1.3 in
17:03 6.0 °F 0.3 °F 1002.9 in SW 3.9 mph 6.1 mph 67 % 1.5 in
17:04 5.9 °F 0.2 °F 1002.9 in SSW 4.3 mph 7.6 mph 67 % 1.5 in
17:09 5.8 °F 0.3 °F 1002.9 in SSW 4.5 mph 7.6 mph 68 % 1.8 in
17:11 5.8 °F 0.6 °F 1002.9 in South 4.2 mph 7.6 mph 69 % 1.8 in
17:13 5.8 °F 0.6 °F 1001.9 in South 3.5 mph 7.6 mph 69 % 1.8 in
17:17 5.7 °F 0.7 °F 1001.9 in SSE 2.9 mph 5.0 mph 70 % 1.8 in
17:25 5.6 °F 0.8 °F 1001.9 in SSE 2.1 mph 4.7 mph 71 % 1.8 in
17:26 5.6 °F 0.8 °F 1001.9 in South 1.4 mph 4.0 mph 71 % 1.8 in
17:31 5.5 °F 0.8 °F 1002.9 in SSE 2.1 mph 6.4 mph 72 % 1.8 in
17:36 5.4 °F 0.9 °F 1002.9 in SSE 4.3 mph 9.3 mph 73 % 1.8 in
17:37 5.4 °F 0.9 °F 1002.9 in SSE 5.1 mph 9.3 mph 73 % 1.8 in
17:38 5.4 °F 0.9 °F 1002.9 in SSE 5.5 mph 9.3 mph 73 % 1.3 in
17:47 5.3 °F 1.1 °F 1001.9 in SSE 5.0 mph 10.5 mph 74 % 1.0 in
17:52 5.3 °F 1.2 °F 1001.9 in SW 4.0 mph 7.9 mph 75 % 1.0 in
17:54 5.3 °F 1.2 °F 1001.9 in SW 3.9 mph 8.7 mph 75 % 1.0 in
17:59 5.2 °F 1.1 °F 1002.9 in West 5.5 mph 8.7 mph 75 % 0.8 in
18:02 5.2 °F 1.1 °F 1002.9 in WNW 6.0 mph 8.7 mph 75 % 0.8 in
18:07 5.1 °F 1.2 °F 1002.9 in North 3.2 mph 7.9 mph 76 % 0.3 in
18:12 5.1 °F 1.4 °F 1002.9 in NE 0.6 mph 4.0 mph 77 % 0.3 in
18:14 5.0 °F 1.3 °F 1002.9 in SW 0.2 mph 2.1 mph 77 % 0.3 in
18:19 4.9 °F 1.4 °F 1002.9 in Calm   2.1 mph 78 % 0.0 in
18:21 4.9 °F 1.4 °F 1002.9 in Calm   2.1 mph 78 % 0.0 in
18:25 4.8 °F 1.3 °F 1002.9 in SW 1.0 mph 4.7 mph 78 % 0.0 in
18:30 4.7 °F 1.2 °F 1002.9 in SW 1.9 mph 4.7 mph 78 % 0.0 in
18:31 4.7 °F 1.4 °F 1002.9 in SW 1.9 mph 4.7 mph 79 % 0.0 in
18:33 4.7 °F 1.4 °F 1002.9 in SW 1.4 mph 4.3 mph 79 % 0.0 in
18:37 4.6 °F 1.3 °F 1002.9 in North 0.2 mph   79 % 0.0 in
18:40 4.6 °F 1.4 °F 1002.9 in Calm     80 % 0.0 in
18:42 4.6 °F 1.4 °F 1002.9 in Calm     80 % 0.0 in
18:47 4.5 °F 1.3 °F 1002.9 in Calm     80 % 0.0 in
18:48 4.5 °F 1.3 °F 1002.9 in SW 0.2 mph 4.3 mph 80 % 0.0 in
18:49 4.4 °F 1.4 °F 1002.9 in SW 0.5 mph 4.3 mph 81 % 0.0 in
18:53 4.4 °F 1.4 °F 1002.9 in SW 1.8 mph 4.7 mph 81 % 0.0 in
18:58 4.3 °F 1.3 °F 1002.9 in WSW 3.4 mph 4.7 mph 81 % 0.0 in
19:02 4.3 °F 1.5 °F 1002.9 in West 2.4 mph 4.7 mph 82 % 0.0 in
19:07 4.1 °F 1.3 °F 1002.9 in WNW 1.3 mph 4.0 mph 82 % 0.0 in
19:13 4.1 °F 1.3 °F 1002.9 in West 0.6 mph 3.5 mph 82 % 0.0 in
19:15 4.1 °F 1.4 °F 1002.9 in North 0.2 mph   83 % 0.0 in
19:20 4.0 °F 1.4 °F 1002.9 in Calm     83 % 0.0 in
19:23 4.0 °F 1.4 °F 1002.9 in Calm     83 % 0.0 in
19:28 3.9 °F 1.4 °F 1003.9 in Calm     84 % 0.0 in
19:33 3.8 °F 1.3 °F 1003.9 in WSW 0.5 mph 4.3 mph 84 % 0.0 in
19:36 3.8 °F 1.3 °F 1003.9 in SW 1.3 mph 4.3 mph 84 % 0.0 in
19:37 3.8 °F 1.3 °F 1003.9 in SW 1.8 mph 4.7 mph 84 % 0.0 in
19:42 3.8 °F 1.5 °F 1003.9 in SW 3.2 mph 4.7 mph 85 % 0.0 in
19:43 3.7 °F 1.4 °F 1003.9 in SW 2.9 mph 4.7 mph 85 % 0.0 in
19:44 3.7 °F 1.4 °F 1003.9 in SW 2.6 mph 4.7 mph 85 % 0.0 in
19:48 3.7 °F 1.4 °F 1003.9 in WSW 1.3 mph 4.7 mph 85 % 0.0 in
19:50 3.6 °F 1.3 °F 1003.9 in West 0.6 mph 4.3 mph 85 % 0.0 in
19:55 3.6 °F 1.3 °F 1003.9 in West 1.4 mph 4.3 mph 85 % 0.0 in
20:09 3.3 °F 1.2 °F 1003.9 in WSW 0.5 mph 3.5 mph 86 % 0.0 in
20:14 3.2 °F 1.1 °F 1003.9 in SSW 2.3 mph 4.3 mph 86 % 0.0 in
20:16 3.3 °F 1.2 °F 1003.9 in SSW 2.6 mph 6.9 mph 86 % 0.0 in
20:20 3.2 °F 1.1 °F 1003.9 in SW 3.4 mph 6.9 mph 86 % 0.0 in
20:25 3.1 °F 1.0 °F 1003.9 in West 3.5 mph 5.8 mph 86 % 0.0 in
20:26 3.1 °F 1.0 °F 1003.9 in West 3.5 mph 5.8 mph 86 % 0.0 in
20:29 3.1 °F 1.2 °F 1003.9 in WNW 2.3 mph 5.5 mph 87 % 0.0 in
20:31 3.1 °F 1.2 °F 1003.9 in NW 1.6 mph 5.0 mph 87 % 0.0 in
20:36 3.0 °F 1.1 °F 1003.9 in WNW 0.5 mph 5.0 mph 87 % 0.0 in
20:41 3.0 °F 1.1 °F 1003.9 in WSW 1.0 mph 5.5 mph 87 % 0.0 in
20:46 3.0 °F 1.1 °F 1005.0 in SW 2.9 mph 5.8 mph 87 % 0.0 in
20:47 2.9 °F 1.1 °F 1005.0 in SW 3.1 mph 5.8 mph 88 % 0.0 in
20:52 2.8 °F 1.0 °F 1005.0 in West 2.4 mph 4.7 mph 88 % 0.0 in
20:54 2.7 °F 0.9 °F 1005.0 in WNW 2.3 mph 4.7 mph 88 % 0.0 in
20:59 2.6 °F 0.8 °F 1005.0 in NW 1.1 mph 4.0 mph 88 % 0.0 in
21:04 2.5 °F 0.7 °F 1005.0 in NW 0.2 mph 1.8 mph 88 % 0.0 in
21:05 2.5 °F 0.7 °F 1005.0 in Calm     88 % 0.0 in
21:10 2.4 °F 0.6 °F 1005.0 in Calm     88 % 0.0 in
21:16 2.3 °F 0.5 °F 1005.0 in SW 0.6 mph 5.0 mph 88 % 0.0 in
21:23 2.0 °F 0.2 °F 1005.0 in WSW 1.4 mph 5.0 mph 88 % 0.0 in
21:28 1.9 °F 0.1 °F 1005.0 in Calm     88 % 0.0 in
21:30 1.8 °F 0.0 °F 1005.0 in Calm     88 % 0.0 in
21:35 1.6 °F 0.0 °F 1005.0 in WSW 0.8 mph 4.0 mph 89 % 0.0 in
21:38 1.6 °F 0.0 °F 1005.0 in WSW 1.0 mph 4.0 mph 89 % 0.0 in
21:45 1.4 °F -0.2 °F 1005.0 in WSW 0.5 mph 3.2 mph 89 % 0.0 in
21:47 1.4 °F -0.2 °F 1005.0 in WSW 0.3 mph 3.2 mph 89 % 0.0 in
21:52 1.3 °F -0.3 °F 1005.0 in Calm   1.8 mph 89 % 0.0 in
21:53 1.3 °F -0.3 °F 1005.0 in Calm   1.8 mph 89 % 0.0 in
21:54 1.3 °F -0.3 °F 1005.0 in Calm   4.7 mph 89 % 0.0 in
21:59 1.2 °F -0.4 °F 1005.0 in WNW 0.6 mph 4.7 mph 89 % 0.0 in
22:01 1.1 °F -0.5 °F 1005.0 in NW 0.8 mph 4.7 mph 89 % 0.0 in
22:02 1.1 °F -0.5 °F 1005.0 in NW 1.3 mph 4.7 mph 89 % 0.0 in
22:07 1.0 °F -0.6 °F 1005.0 in NNW 1.0 mph 4.3 mph 89 % 0.0 in
22:09 1.0 °F -0.6 °F 1005.0 in NNW 1.0 mph 4.3 mph 89 % 0.0 in
22:10 1.0 °F -0.6 °F 1005.0 in NNW 1.0 mph 4.3 mph 89 % 0.0 in
22:15 0.9 °F -0.7 °F 1005.0 in WNW 0.5 mph 4.0 mph 89 % 0.0 in
22:20 0.8 °F -0.8 °F 1005.0 in WNW 0.5 mph 4.0 mph 89 % 0.0 in
22:21 0.7 °F -0.9 °F 1005.0 in WNW 0.5 mph 4.0 mph 89 % 0.0 in
22:25 0.7 °F -0.9 °F 1005.0 in Calm     89 % 0.0 in
22:30 0.6 °F -1.0 °F 1003.9 in Calm   3.5 mph 89 % 0.0 in
22:31 0.6 °F -1.0 °F 1003.9 in WNW 0.2 mph 3.5 mph 89 % 0.0 in
22:36 0.6 °F -1.0 °F 1003.9 in SW 1.3 mph 4.7 mph 89 % 0.0 in
22:37 0.6 °F -1.0 °F 1003.9 in SW 1.9 mph 5.5 mph 89 % 0.0 in
22:42 0.6 °F -1.0 °F 1003.9 in SSW 3.1 mph 5.5 mph 89 % 0.0 in
22:47 0.5 °F -1.1 °F 1003.9 in SW 1.4 mph 5.0 mph 89 % 0.0 in
22:48 0.5 °F -1.1 °F 1003.9 in SW 1.3 mph 5.0 mph 89 % 0.0 in
22:53 0.4 °F -1.1 °F 1003.9 in Calm     90 % 0.0 in
22:56 0.4 °F -1.1 °F 1003.9 in SW 0.6 mph 4.0 mph 90 % 0.0 in
22:59 0.4 °F -1.1 °F 1005.0 in West 0.8 mph 4.0 mph 90 % 0.0 in
23:03 0.3 °F -1.2 °F 1005.0 in WNW 1.0 mph 4.0 mph 90 % 0.0 in
23:08 0.2 °F -1.2 °F 1005.0 in North 0.3 mph 2.6 mph 90 % 0.0 in
23:10 0.2 °F -1.2 °F 1005.0 in Calm     90 % 0.0 in
23:15 0.1 °F -1.3 °F 1005.0 in Calm   1.4 mph 90 % 0.0 in
23:16 0.1 °F -1.3 °F 1005.0 in Calm   1.4 mph 90 % 0.0 in
23:23 0.1 °F -1.3 °F 1005.0 in Calm   2.6 mph 90 % 0.0 in
23:28 0.0 °F -1.4 °F 1005.0 in Calm     90 % 0.0 in
23:31 0.0 °F -1.4 °F 1005.0 in Calm     90 % 0.0 in
23:36 -0.1 °F -1.6 °F 1005.0 in Calm     90 % 0.0 in
23:37 -0.1 °F -1.6 °F 1005.0 in Calm     90 % 0.0 in
23:42 -0.2 °F -1.7 °F 1005.0 in Calm     90 % 0.0 in
23:47 -0.3 °F -1.7 °F 1005.0 in Calm     90 % 0.0 in
23:52 -0.3 °F -1.7 °F 1005.0 in Calm     90 % 0.0 in
23:54 -0.3 °F -1.7 °F 1005.0 in Calm     90 % 0.0 in
23:57 -0.3 °F -1.7 °F 1005.0 in Calm     90 % 0.0 in
Vremenska postaja Senovo
Podatki zbrani iz Weather Underground - 3.25 mb

Script developed by  Jim McMurry - jmcmurry@mwt.net Adapted for the template by  Wim van der Kuil - Leuven-Template.eu

Vremenski podatki so objavljeni na:

European Weather Network

WeatherCloud

Weather Underground

AWEKAS

HAMweather, WeatherForYou, PWS Weather

MapView

Geostik

Slovenia weather network

Oprema, ki se uporablja:

Vremenski program
Cumulus

Vremenski server
Asus

Cumulus

Asus